sensor_id;sensor_type;location;lat;lon;timestamp;pressure;altitude;pressure_sealevel;temperature;humidity
47374;BME280;33123;50.118;10.272;2023-02-21T00:02:37;98071.38;;;10.05;61.92
47374;BME280;33123;50.118;10.272;2023-02-21T00:05:21;98066.28;;;10.16;61.57
47374;BME280;33123;50.118;10.272;2023-02-21T00:08:06;98055.63;;;10.22;61.33
47374;BME280;33123;50.118;10.272;2023-02-21T00:10:50;98051.75;;;10.25;60.27
47374;BME280;33123;50.118;10.272;2023-02-21T00:13:35;98043.47;;;10.21;59.86
47374;BME280;33123;50.118;10.272;2023-02-21T00:16:19;98046.72;;;10.12;59.25
47374;BME280;33123;50.118;10.272;2023-02-21T00:19:05;98056.94;;;9.96;59.47
47374;BME280;33123;50.118;10.272;2023-02-21T00:21:49;98054.09;;;9.86;59.86
47374;BME280;33123;50.118;10.272;2023-02-21T00:24:33;98054.94;;;9.75;60.24
47374;BME280;33123;50.118;10.272;2023-02-21T00:27:17;98046.59;;;9.66;60.92
47374;BME280;33123;50.118;10.272;2023-02-21T00:30:02;98050.38;;;9.59;62.14
47374;BME280;33123;50.118;10.272;2023-02-21T00:32:46;98042.47;;;9.59;62.74
47374;BME280;33123;50.118;10.272;2023-02-21T00:35:31;98036.06;;;9.66;62.89
47374;BME280;33123;50.118;10.272;2023-02-21T00:38:16;98037.06;;;9.77;62.56
47374;BME280;33123;50.118;10.272;2023-02-21T00:41:00;98035.81;;;9.79;62.51
47374;BME280;33123;50.118;10.272;2023-02-21T00:43:44;98034.75;;;9.92;62.24
47374;BME280;33123;50.118;10.272;2023-02-21T00:46:29;98030.28;;;9.93;61.99
47374;BME280;33123;50.118;10.272;2023-02-21T00:49:13;98031.28;;;10.03;61.27
47374;BME280;33123;50.118;10.272;2023-02-21T00:51:58;98033.44;;;10.07;61.09
47374;BME280;33123;50.118;10.272;2023-02-21T00:54:43;98034.00;;;10.09;60.99
47374;BME280;33123;50.118;10.272;2023-02-21T00:57:27;98033.56;;;10.12;61.13
47374;BME280;33123;50.118;10.272;2023-02-21T01:00:16;98032.28;;;10.14;61.17
47374;BME280;33123;50.118;10.272;2023-02-21T01:03:01;98033.31;;;10.13;61.04
47374;BME280;33123;50.118;10.272;2023-02-21T01:05:45;98036.19;;;10.12;61.25
47374;BME280;33123;50.118;10.272;2023-02-21T01:08:30;98025.66;;;10.12;61.53
47374;BME280;33123;50.118;10.272;2023-02-21T01:11:15;98016.63;;;10.08;61.79
47374;BME280;33123;50.118;10.272;2023-02-21T01:13:59;98012.94;;;10.09;61.99
47374;BME280;33123;50.118;10.272;2023-02-21T01:16:43;98015.97;;;10.00;62.29
47374;BME280;33123;50.118;10.272;2023-02-21T01:19:27;98013.31;;;10.00;62.36
47374;BME280;33123;50.118;10.272;2023-02-21T01:22:12;98017.78;;;10.00;62.29
47374;BME280;33123;50.118;10.272;2023-02-21T01:24:57;98004.28;;;9.96;62.41
47374;BME280;33123;50.118;10.272;2023-02-21T01:27:41;98004.03;;;9.98;62.47
47374;BME280;33123;50.118;10.272;2023-02-21T01:30:26;98002.22;;;9.98;62.33
47374;BME280;33123;50.118;10.272;2023-02-21T01:33:10;97992.25;;;10.00;62.35
47374;BME280;33123;50.118;10.272;2023-02-21T01:35:54;98003.00;;;9.99;62.42
47374;BME280;33123;50.118;10.272;2023-02-21T01:38:39;98001.75;;;10.01;62.18
47374;BME280;33123;50.118;10.272;2023-02-21T01:41:24;97990.88;;;9.98;62.33
47374;BME280;33123;50.118;10.272;2023-02-21T01:44:28;97999.31;;;10.12;62.29
47374;BME280;33123;50.118;10.272;2023-02-21T01:47:14;97993.56;;;10.15;62.15
47374;BME280;33123;50.118;10.272;2023-02-21T01:49:59;97998.63;;;10.16;61.96
47374;BME280;33123;50.118;10.272;2023-02-21T01:52:44;97990.47;;;10.18;62.01
47374;BME280;33123;50.118;10.272;2023-02-21T01:55:29;97999.50;;;10.22;61.99
47374;BME280;33123;50.118;10.272;2023-02-21T01:58:17;97998.47;;;10.23;61.81
47374;BME280;33123;50.118;10.272;2023-02-21T02:01:04;97975.91;;;10.15;61.93
47374;BME280;33123;50.118;10.272;2023-02-21T02:03:49;97990.69;;;10.28;61.84
47374;BME280;33123;50.118;10.272;2023-02-21T02:06:33;97993.88;;;10.30;61.62
47374;BME280;33123;50.118;10.272;2023-02-21T02:09:18;97997.88;;;10.32;61.66
47374;BME280;33123;50.118;10.272;2023-02-21T02:12:18;97992.03;;;10.30;61.35
47374;BME280;33123;50.118;10.272;2023-02-21T02:15:17;97994.22;;;10.34;61.28
47374;BME280;33123;50.118;10.272;2023-02-21T02:17:56;97976.72;;;10.27;61.30
47374;BME280;33123;50.118;10.272;2023-02-21T02:26:42;97993.31;;;10.28;61.47
47374;BME280;33123;50.118;10.272;2023-02-21T02:29:32;98004.88;;;10.27;61.56
47374;BME280;33123;50.118;10.272;2023-02-21T02:32:22;97998.47;;;10.23;61.60
47374;BME280;33123;50.118;10.272;2023-02-21T02:34:58;97999.72;;;10.20;61.56
47374;BME280;33123;50.118;10.272;2023-02-21T02:37:30;97995.84;;;10.23;61.63
47374;BME280;33123;50.118;10.272;2023-02-21T02:40:21;97995.25;;;10.21;61.90
47374;BME280;33123;50.118;10.272;2023-02-21T02:43:02;98002.03;;;10.17;61.99
47374;BME280;33123;50.118;10.272;2023-02-21T02:45:36;97998.28;;;10.13;61.94
47374;BME280;33123;50.118;10.272;2023-02-21T02:48:10;97991.72;;;10.15;62.17
47374;BME280;33123;50.118;10.272;2023-02-21T02:50:43;97989.09;;;10.15;62.12
47374;BME280;33123;50.118;10.272;2023-02-21T02:53:11;97986.16;;;10.12;62.17
47374;BME280;33123;50.118;10.272;2023-02-21T02:55:41;97993.56;;;10.15;62.23
47374;BME280;33123;50.118;10.272;2023-02-21T02:58:10;97990.13;;;10.14;62.30
47374;BME280;33123;50.118;10.272;2023-02-21T03:00:39;97994.59;;;10.14;62.37
47374;BME280;33123;50.118;10.272;2023-02-21T03:03:22;97997.25;;;10.14;62.22
47374;BME280;33123;50.118;10.272;2023-02-21T03:06:10;97992.47;;;10.11;62.43
47374;BME280;33123;50.118;10.272;2023-02-21T03:08:44;97981.63;;;9.95;62.30
47374;BME280;33123;50.118;10.272;2023-02-21T03:11:16;98010.97;;;10.16;62.40
47374;BME280;33123;50.118;10.272;2023-02-21T03:13:48;98009.94;;;10.17;62.09
47374;BME280;33123;50.118;10.272;2023-02-21T03:16:18;98012.34;;;10.18;61.99
47374;BME280;33123;50.118;10.272;2023-02-21T03:18:51;98011.53;;;10.18;62.19
47374;BME280;33123;50.118;10.272;2023-02-21T03:21:24;98002.34;;;10.20;61.92
47374;BME280;33123;50.118;10.272;2023-02-21T03:23:53;98010.25;;;10.20;61.94
47374;BME280;33123;50.118;10.272;2023-02-21T03:26:23;97995.25;;;10.21;61.92
47374;BME280;33123;50.118;10.272;2023-02-21T03:28:53;97987.50;;;10.14;62.07
47374;BME280;33123;50.118;10.272;2023-02-21T03:31:23;97988.88;;;10.17;61.91
47374;BME280;33123;50.118;10.272;2023-02-21T03:33:52;97985.19;;;10.18;61.98
47374;BME280;33123;50.118;10.272;2023-02-21T03:36:20;97992.06;;;10.19;61.90
47374;BME280;33123;50.118;10.272;2023-02-21T03:38:47;97983.59;;;10.17;62.15
47374;BME280;33123;50.118;10.272;2023-02-21T03:41:15;97986.16;;;10.12;62.24
47374;BME280;33123;50.118;10.272;2023-02-21T03:43:41;97987.84;;;10.18;62.26
47374;BME280;33123;50.118;10.272;2023-02-21T03:46:08;97983.72;;;10.22;62.02
47374;BME280;33123;50.118;10.272;2023-02-21T03:48:35;97987.72;;;10.24;62.00
47374;BME280;33123;50.118;10.272;2023-02-21T03:51:01;97986.44;;;10.27;61.91
47374;BME280;33123;50.118;10.272;2023-02-21T03:53:29;97981.66;;;10.24;61.85
47374;BME280;33123;50.118;10.272;2023-02-21T03:55:56;97978.66;;;10.20;62.06
47374;BME280;33123;50.118;10.272;2023-02-21T03:58:23;97980.16;;;10.28;61.81
47374;BME280;33123;50.118;10.272;2023-02-21T04:00:49;97972.97;;;10.12;62.42
47374;BME280;33123;50.118;10.272;2023-02-21T04:03:18;97954.53;;;10.12;62.27
47374;BME280;33123;50.118;10.272;2023-02-21T04:05:44;97971.13;;;10.24;62.15
47374;BME280;33123;50.118;10.272;2023-02-21T04:08:11;97972.13;;;10.23;62.25
47374;BME280;33123;50.118;10.272;2023-02-21T04:10:39;97968.13;;;10.20;62.11
47374;BME280;33123;50.118;10.272;2023-02-21T04:13:07;97963.00;;;10.14;62.39
47374;BME280;33123;50.118;10.272;2023-02-21T04:15:34;97962.91;;;10.09;62.17
47374;BME280;33123;50.118;10.272;2023-02-21T04:18:01;97961.47;;;10.01;62.06
47374;BME280;33123;50.118;10.272;2023-02-21T04:20:28;97969.72;;;9.93;62.19
47374;BME280;33123;50.118;10.272;2023-02-21T04:22:54;97974.09;;;9.87;62.57
47374;BME280;33123;50.118;10.272;2023-02-21T04:25:21;97968.63;;;9.77;62.83
47374;BME280;33123;50.118;10.272;2023-02-21T04:27:49;97962.69;;;9.70;62.72
47374;BME280;33123;50.118;10.272;2023-02-21T04:30:16;97968.91;;;9.64;62.78
47374;BME280;33123;50.118;10.272;2023-02-21T04:32:42;97971.91;;;9.56;63.18
47374;BME280;33123;50.118;10.272;2023-02-21T04:35:09;97954.53;;;9.31;63.28
47374;BME280;33123;50.118;10.272;2023-02-21T04:37:36;97974.22;;;9.40;63.82
47374;BME280;33123;50.118;10.272;2023-02-21T04:40:03;97975.69;;;9.36;63.91
47374;BME280;33123;50.118;10.272;2023-02-21T04:42:30;97975.81;;;9.30;64.21
47374;BME280;33123;50.118;10.272;2023-02-21T04:44:57;97976.50;;;9.25;64.26
47374;BME280;33123;50.118;10.272;2023-02-21T04:47:24;97978.78;;;9.21;64.64
47374;BME280;33123;50.118;10.272;2023-02-21T04:50:25;97973.22;;;9.06;65.08
47374;BME280;33123;50.118;10.272;2023-02-21T04:52:53;97975.03;;;9.06;64.90
47374;BME280;33123;50.118;10.272;2023-02-21T04:55:19;97966.00;;;9.02;65.23
47374;BME280;33123;50.118;10.272;2023-02-21T04:57:46;97963.25;;;8.96;65.03
47374;BME280;33123;50.118;10.272;2023-02-21T05:00:15;97955.38;;;8.96;65.01
47374;BME280;33123;50.118;10.272;2023-02-21T05:02:42;97955.25;;;8.91;65.27
47374;BME280;33123;50.118;10.272;2023-02-21T05:05:10;97950.47;;;8.88;65.23
47374;BME280;33123;50.118;10.272;2023-02-21T05:07:36;97965.31;;;8.83;65.60
47374;BME280;33123;50.118;10.272;2023-02-21T05:10:03;97958.31;;;8.77;65.47
47374;BME280;33123;50.118;10.272;2023-02-21T05:12:30;97936.84;;;8.56;66.02
47374;BME280;33123;50.118;10.272;2023-02-21T05:14:57;97951.13;;;8.60;66.07
47374;BME280;33123;50.118;10.272;2023-02-21T05:17:25;97942.91;;;8.57;66.13
47374;BME280;33123;50.118;10.272;2023-02-21T05:19:52;97946.44;;;8.51;65.96
47374;BME280;33123;50.118;10.272;2023-02-21T05:22:19;97937.84;;;8.43;66.24
47374;BME280;33123;50.118;10.272;2023-02-21T05:24:47;97935.97;;;8.32;66.68
47374;BME280;33123;50.118;10.272;2023-02-21T05:27:16;97928.41;;;8.24;67.03
47374;BME280;33123;50.118;10.272;2023-02-21T05:29:45;97933.31;;;8.20;67.03
47374;BME280;33123;50.118;10.272;2023-02-21T05:32:13;97935.59;;;8.17;66.21
47374;BME280;33123;50.118;10.272;2023-02-21T05:34:42;97935.47;;;8.12;65.12
47374;BME280;33123;50.118;10.272;2023-02-21T05:37:11;97935.78;;;8.04;65.39
47374;BME280;33123;50.118;10.272;2023-02-21T05:39:38;97934.03;;;7.98;64.81
47374;BME280;33123;50.118;10.272;2023-02-21T05:42:05;97935.97;;;7.90;64.31
47374;BME280;33123;50.118;10.272;2023-02-21T05:44:32;97943.13;;;7.83;63.96
47374;BME280;33123;50.118;10.272;2023-02-21T05:46:59;97934.38;;;7.71;64.30
47374;BME280;33123;50.118;10.272;2023-02-21T05:49:26;97941.31;;;7.65;64.58
47374;BME280;33123;50.118;10.272;2023-02-21T05:52:00;97937.97;;;7.58;64.89
47374;BME280;33123;50.118;10.272;2023-02-21T05:54:31;97940.69;;;7.52;64.74
47374;BME280;33123;50.118;10.272;2023-02-21T05:56:57;97937.34;;;7.45;64.63
47374;BME280;33123;50.118;10.272;2023-02-21T05:59:24;97929.53;;;7.38;64.51
47374;BME280;33123;50.118;10.272;2023-02-21T06:01:50;97929.63;;;7.31;64.24
47374;BME280;33123;50.118;10.272;2023-02-21T06:04:18;97928.91;;;7.24;64.12
47374;BME280;33123;50.118;10.272;2023-02-21T06:06:44;97925.41;;;7.12;64.29
47374;BME280;33123;50.118;10.272;2023-02-21T06:09:12;97932.66;;;7.10;64.53
47374;BME280;33123;50.118;10.272;2023-02-21T06:11:39;97932.75;;;7.03;64.91
47374;BME280;33123;50.118;10.272;2023-02-21T06:14:13;97931.00;;;6.97;65.25
47374;BME280;33123;50.118;10.272;2023-02-21T06:16:41;97903.81;;;6.73;65.35
47374;BME280;33123;50.118;10.272;2023-02-21T06:19:09;97932.50;;;6.86;66.44
47374;BME280;33123;50.118;10.272;2023-02-21T06:21:37;97938.53;;;6.87;66.78
47374;BME280;33123;50.118;10.272;2023-02-21T06:24:05;97939.34;;;6.87;67.00
47374;BME280;33123;50.118;10.272;2023-02-21T06:26:33;97944.56;;;6.87;67.09
47374;BME280;33123;50.118;10.272;2023-02-21T06:29:00;97938.34;;;6.88;67.46
47374;BME280;33123;50.118;10.272;2023-02-21T06:31:26;97939.16;;;6.89;67.42
47374;BME280;33123;50.118;10.272;2023-02-21T06:33:53;97937.69;;;6.93;67.74
47374;BME280;33123;50.118;10.272;2023-02-21T06:36:21;97943.28;;;6.97;67.89
47374;BME280;33123;50.118;10.272;2023-02-21T06:38:51;97951.53;;;7.00;67.51
47374;BME280;33123;50.118;10.272;2023-02-21T06:41:21;97938.78;;;7.04;67.88
47374;BME280;33123;50.118;10.272;2023-02-21T06:43:50;97944.78;;;7.11;68.55
47374;BME280;33123;50.118;10.272;2023-02-21T06:46:17;97941.47;;;7.15;67.85
47374;BME280;33123;50.118;10.272;2023-02-21T06:48:44;97950.09;;;7.23;68.30
47374;BME280;33123;50.118;10.272;2023-02-21T06:51:11;97955.03;;;7.31;68.37
47374;BME280;33123;50.118;10.272;2023-02-21T06:53:38;97955.56;;;7.39;68.34
47374;BME280;33123;50.118;10.272;2023-02-21T06:56:05;97948.84;;;7.44;68.09
47374;BME280;33123;50.118;10.272;2023-02-21T06:58:32;97956.81;;;7.55;67.53
47374;BME280;33123;50.118;10.272;2023-02-21T07:01:00;97937.50;;;7.50;68.10
47374;BME280;33123;50.118;10.272;2023-02-21T07:03:27;97955.03;;;7.67;68.06
47374;BME280;33123;50.118;10.272;2023-02-21T07:05:54;97966.59;;;7.78;67.68
47374;BME280;33123;50.118;10.272;2023-02-21T07:08:21;97967.88;;;7.87;67.85
47374;BME280;33123;50.118;10.272;2023-02-21T07:10:47;97966.00;;;7.94;67.52
47374;BME280;33123;50.118;10.272;2023-02-21T07:13:14;97965.09;;;8.01;67.56
47374;BME280;33123;50.118;10.272;2023-02-21T07:15:41;97956.91;;;8.09;67.61
47374;BME280;33123;50.118;10.272;2023-02-21T07:18:09;97954.78;;;8.17;67.96
47374;BME280;33123;50.118;10.272;2023-02-21T07:20:35;97963.72;;;8.28;67.51
47374;BME280;33123;50.118;10.272;2023-02-21T07:23:02;97976.09;;;8.39;67.20
47374;BME280;33123;50.118;10.272;2023-02-21T07:25:28;97970.66;;;8.53;67.19
47374;BME280;33123;50.118;10.272;2023-02-21T07:27:55;97984.81;;;8.63;66.17
47374;BME280;33123;50.118;10.272;2023-02-21T07:30:21;97970.00;;;8.69;66.24
47374;BME280;33123;50.118;10.272;2023-02-21T07:32:48;97986.56;;;8.81;65.97
47374;BME280;33123;50.118;10.272;2023-02-21T07:35:16;97984.84;;;8.87;65.55
47374;BME280;33123;50.118;10.272;2023-02-21T07:37:43;97984.84;;;8.87;65.55
47374;BME280;33123;50.118;10.272;2023-02-21T07:40:09;97988.88;;;8.89;65.63
47374;BME280;33123;50.118;10.272;2023-02-21T07:42:40;97997.09;;;8.93;65.41
47374;BME280;33123;50.118;10.272;2023-02-21T07:45:08;97993.09;;;8.90;66.04
47374;BME280;33123;50.118;10.272;2023-02-21T07:47:34;97998.13;;;8.92;66.06
47374;BME280;33123;50.118;10.272;2023-02-21T07:50:01;97993.66;;;8.92;65.98
47374;BME280;33123;50.118;10.272;2023-02-21T07:52:29;97995.84;;;8.95;65.97
47374;BME280;33123;50.118;10.272;2023-02-21T07:54:56;98006.47;;;9.01;65.66
47374;BME280;33123;50.118;10.272;2023-02-21T07:57:23;97976.16;;;8.75;66.52
47374;BME280;33123;50.118;10.272;2023-02-21T07:59:49;98004.88;;;8.99;66.26
47374;BME280;33123;50.118;10.272;2023-02-21T08:02:16;98007.97;;;9.08;66.23
47374;BME280;33123;50.118;10.272;2023-02-21T08:04:42;98003.84;;;9.12;66.50
47374;BME280;33123;50.118;10.272;2023-02-21T08:07:09;97998.91;;;9.16;66.48
47374;BME280;33123;50.118;10.272;2023-02-21T08:09:37;98005.91;;;9.22;66.30
47374;BME280;33123;50.118;10.272;2023-02-21T08:12:06;98011.63;;;9.31;66.08
47374;BME280;33123;50.118;10.272;2023-02-21T08:14:32;98009.09;;;9.36;66.45
47374;BME280;33123;50.118;10.272;2023-02-21T08:16:59;97996.63;;;9.31;66.16
47374;BME280;33123;50.118;10.272;2023-02-21T08:19:26;98014.81;;;9.44;66.14
47374;BME280;33123;50.118;10.272;2023-02-21T08:21:53;98013.66;;;9.52;66.04
47374;BME280;33123;50.118;10.272;2023-02-21T08:24:19;98012.28;;;9.61;65.80
47374;BME280;33123;50.118;10.272;2023-02-21T08:26:47;98023.00;;;9.71;65.69
47374;BME280;33123;50.118;10.272;2023-02-21T08:29:14;98020.25;;;9.78;65.50
47374;BME280;33123;50.118;10.272;2023-02-21T08:31:42;98025.88;;;9.70;65.38
47374;BME280;33123;50.118;10.272;2023-02-21T08:34:09;98020.47;;;9.76;65.53
47374;BME280;33123;50.118;10.272;2023-02-21T08:36:38;98017.81;;;9.88;65.00
47374;BME280;33123;50.118;10.272;2023-02-21T08:39:05;98013.47;;;9.82;64.98
47374;BME280;33123;50.118;10.272;2023-02-21T08:41:36;98018.34;;;10.02;64.87
47374;BME280;33123;50.118;10.272;2023-02-21T08:44:04;98016.00;;;10.17;64.79
47374;BME280;33123;50.118;10.272;2023-02-21T08:46:31;98020.59;;;10.22;63.78
47374;BME280;33123;50.118;10.272;2023-02-21T08:48:58;98015.13;;;10.40;63.48
47374;BME280;33123;50.118;10.272;2023-02-21T08:51:25;98014.38;;;10.56;63.24
47374;BME280;33123;50.118;10.272;2023-02-21T08:53:51;98017.28;;;10.72;62.52
47374;BME280;33123;50.118;10.272;2023-02-21T08:56:18;98014.06;;;11.03;61.11
47374;BME280;33123;50.118;10.272;2023-02-21T08:58:45;98017.97;;;11.34;60.67
47374;BME280;33123;50.118;10.272;2023-02-21T09:01:13;98012.91;;;11.50;59.52
47374;BME280;33123;50.118;10.272;2023-02-21T09:03:40;98013.25;;;11.58;58.99
47374;BME280;33123;50.118;10.272;2023-02-21T09:06:07;98015.28;;;11.90;58.10
47374;BME280;33123;50.118;10.272;2023-02-21T09:08:34;98014.34;;;12.01;57.84
47374;BME280;33123;50.118;10.272;2023-02-21T09:11:01;98009.72;;;12.40;57.63
47374;BME280;33123;50.118;10.272;2023-02-21T09:13:29;98011.53;;;12.94;55.67
47374;BME280;33123;50.118;10.272;2023-02-21T09:15:57;98006.13;;;13.58;53.27
47374;BME280;33123;50.118;10.272;2023-02-21T09:18:26;98009.44;;;13.91;52.03
47374;BME280;33123;50.118;10.272;2023-02-21T09:20:53;97996.38;;;14.47;51.31
47374;BME280;33123;50.118;10.272;2023-02-21T09:23:23;97997.19;;;14.58;49.85
47374;BME280;33123;50.118;10.272;2023-02-21T09:25:49;98000.59;;;15.24;48.86
47374;BME280;33123;50.118;10.272;2023-02-21T09:28:17;97990.41;;;15.62;47.90
47374;BME280;33123;50.118;10.272;2023-02-21T09:30:44;97990.88;;;15.90;47.18
47374;BME280;33123;50.118;10.272;2023-02-21T09:33:10;97997.69;;;16.11;46.15
47374;BME280;33123;50.118;10.272;2023-02-21T09:35:39;97983.09;;;16.48;45.86
47374;BME280;33123;50.118;10.272;2023-02-21T09:38:06;97980.94;;;16.55;45.13
47374;BME280;33123;50.118;10.272;2023-02-21T09:40:39;97997.53;;;16.76;44.83
47374;BME280;33123;50.118;10.272;2023-02-21T09:43:11;98003.25;;;16.93;44.23
47374;BME280;33123;50.118;10.272;2023-02-21T09:45:40;97986.34;;;16.79;44.00
47374;BME280;33123;50.118;10.272;2023-02-21T09:48:11;97988.56;;;17.01;44.24
47374;BME280;33123;50.118;10.272;2023-02-21T09:50:42;97989.59;;;17.05;43.86
47374;BME280;33123;50.118;10.272;2023-02-21T09:53:13;97986.34;;;17.37;43.16
47374;BME280;33123;50.118;10.272;2023-02-21T09:55:42;97991.53;;;17.71;42.36
47374;BME280;33123;50.118;10.272;2023-02-21T09:58:11;97984.06;;;17.97;42.09
47374;BME280;33123;50.118;10.272;2023-02-21T10:00:38;97967.50;;;18.00;41.84
47374;BME280;33123;50.118;10.272;2023-02-21T10:03:25;97978.66;;;18.02;41.88
47374;BME280;33123;50.118;10.272;2023-02-21T10:06:03;97983.78;;;17.99;41.67
47374;BME280;33123;50.118;10.272;2023-02-21T10:08:39;97982.56;;;18.47;41.45
47374;BME280;33123;50.118;10.272;2023-02-21T10:11:21;97975.50;;;18.57;41.16
47374;BME280;33123;50.118;10.272;2023-02-21T10:13:57;97975.25;;;18.91;40.40
47374;BME280;33123;50.118;10.272;2023-02-21T10:16:31;97973.41;;;18.35;40.97
47374;BME280;33123;50.118;10.272;2023-02-21T10:19:03;97975.41;;;18.81;40.98
47374;BME280;33123;50.118;10.272;2023-02-21T10:21:36;97977.81;;;18.82;40.83
47374;BME280;33123;50.118;10.272;2023-02-21T10:24:10;97983.88;;;19.02;40.45
47374;BME280;33123;50.118;10.272;2023-02-21T10:26:38;97993.75;;;18.31;41.53
47374;BME280;33123;50.118;10.272;2023-02-21T10:29:12;97992.97;;;18.30;41.67
47374;BME280;33123;50.118;10.272;2023-02-21T10:31:43;97995.31;;;17.94;42.78
47374;BME280;33123;50.118;10.272;2023-02-21T10:34:21;97993.94;;;17.97;42.61
47374;BME280;33123;50.118;10.272;2023-02-21T10:36:51;98004.84;;;18.00;42.76
47374;BME280;33123;50.118;10.272;2023-02-21T10:39:20;98004.28;;;17.79;43.43
47374;BME280;33123;50.118;10.272;2023-02-21T10:41:48;97991.78;;;17.51;43.93
47374;BME280;33123;50.118;10.272;2023-02-21T10:44:18;97990.47;;;17.24;44.59
47374;BME280;33123;50.118;10.272;2023-02-21T10:47:01;97990.91;;;16.73;46.08
47374;BME280;33123;50.118;10.272;2023-02-21T10:49:33;97989.47;;;16.47;46.63
47374;BME280;33123;50.118;10.272;2023-02-21T10:52:05;97988.22;;;16.39;47.17
47374;BME280;33123;50.118;10.272;2023-02-21T10:54:34;97990.56;;;16.01;47.94
47374;BME280;33123;50.118;10.272;2023-02-21T10:57:02;97979.19;;;15.86;48.46
47374;BME280;33123;50.118;10.272;2023-02-21T10:59:31;97983.66;;;15.95;48.89
47374;BME280;33123;50.118;10.272;2023-02-21T11:02:00;97982.28;;;16.08;49.05
47374;BME280;33123;50.118;10.272;2023-02-21T11:04:30;97978.06;;;15.97;49.12
47374;BME280;33123;50.118;10.272;2023-02-21T11:07:02;97985.50;;;16.05;49.13
47374;BME280;33123;50.118;10.272;2023-02-21T11:09:36;97978.78;;;16.18;49.30
47374;BME280;33123;50.118;10.272;2023-02-21T11:12:06;97977.03;;;15.88;49.61
47374;BME280;33123;50.118;10.272;2023-02-21T11:14:34;97978.53;;;16.09;49.45
47374;BME280;33123;50.118;10.272;2023-02-21T11:17:10;97979.59;;;16.08;49.52
47374;BME280;33123;50.118;10.272;2023-02-21T11:19:42;97967.81;;;16.24;49.20
47374;BME280;33123;50.118;10.272;2023-02-21T11:22:09;97973.59;;;16.36;48.45
47374;BME280;33123;50.118;10.272;2023-02-21T11:24:46;97968.91;;;16.57;48.33
47374;BME280;33123;50.118;10.272;2023-02-21T11:27:40;97967.81;;;16.98;47.60
47374;BME280;33123;50.118;10.272;2023-02-21T11:30:13;97968.59;;;17.51;46.97
47374;BME280;33123;50.118;10.272;2023-02-21T11:32:42;97960.50;;;17.85;46.49
47374;BME280;33123;50.118;10.272;2023-02-21T11:35:22;97958.56;;;18.10;44.99
47374;BME280;33123;50.118;10.272;2023-02-21T11:37:52;97954.03;;;18.29;44.91
47374;BME280;33123;50.118;10.272;2023-02-21T11:40:30;97949.25;;;18.26;44.38
47374;BME280;33123;50.118;10.272;2023-02-21T11:46:14;97951.69;;;18.04;44.67
47374;BME280;33123;50.118;10.272;2023-02-21T11:48:50;97951.63;;;17.90;45.35
47374;BME280;33123;50.118;10.272;2023-02-21T11:51:32;97918.53;;;17.24;46.15
47374;BME280;33123;50.118;10.272;2023-02-21T11:54:00;97935.66;;;17.18;47.04
47374;BME280;33123;50.118;10.272;2023-02-21T11:56:38;97935.69;;;16.89;47.68
47374;BME280;33123;50.118;10.272;2023-02-21T11:59:15;97937.69;;;16.73;48.29
47374;BME280;33123;50.118;10.272;2023-02-21T12:01:50;97936.94;;;16.62;49.26
47374;BME280;33123;50.118;10.272;2023-02-21T12:04:29;97930.22;;;16.36;49.57
47374;BME280;33123;50.118;10.272;2023-02-21T12:07:03;97940.56;;;16.43;49.78
47374;BME280;33123;50.118;10.272;2023-02-21T12:09:41;97927.78;;;16.45;50.75
47374;BME280;33123;50.118;10.272;2023-02-21T12:12:22;97929.88;;;16.48;50.49
47374;BME280;33123;50.118;10.272;2023-02-21T12:15:06;97929.38;;;16.46;50.57
47374;BME280;33123;50.118;10.272;2023-02-21T12:18:04;97925.47;;;16.67;50.38
47374;BME280;33123;50.118;10.272;2023-02-21T12:20:57;97915.66;;;16.62;50.54
47374;BME280;33123;50.118;10.272;2023-02-21T12:23:31;97916.16;;;16.64;50.11
47374;BME280;33123;50.118;10.272;2023-02-21T12:29:24;97916.97;;;16.65;50.58
47374;BME280;33123;50.118;10.272;2023-02-21T12:32:16;97910.00;;;16.69;50.59
47374;BME280;33123;50.118;10.272;2023-02-21T12:35:06;97904.16;;;16.72;50.17
47374;BME280;33123;50.118;10.272;2023-02-21T12:37:46;97902.81;;;16.75;50.53
47374;BME280;33123;50.118;10.272;2023-02-21T12:40:30;97900.84;;;16.85;50.56
47374;BME280;33123;50.118;10.272;2023-02-21T12:43:19;97899.16;;;16.95;50.92
47374;BME280;33123;50.118;10.272;2023-02-21T12:45:55;97895.41;;;16.96;49.82
47374;BME280;33123;50.118;10.272;2023-02-21T12:48:30;97895.88;;;17.03;50.32
47374;BME280;33123;50.118;10.272;2023-02-21T12:51:01;97856.09;;;16.87;50.22
47374;BME280;33123;50.118;10.272;2023-02-21T12:53:34;97889.47;;;17.04;50.12
47374;BME280;33123;50.118;10.272;2023-02-21T12:56:04;97866.34;;;16.75;50.25
47374;BME280;33123;50.118;10.272;2023-02-21T12:58:33;97880.78;;;16.93;50.26
47374;BME280;33123;50.118;10.272;2023-02-21T13:01:07;97877.38;;;16.87;50.67
47374;BME280;33123;50.118;10.272;2023-02-21T13:03:44;97868.09;;;16.85;50.84
47374;BME280;33123;50.118;10.272;2023-02-21T13:06:19;97873.19;;;16.81;51.26
47374;BME280;33123;50.118;10.272;2023-02-21T13:08:57;97870.03;;;16.79;51.20
47374;BME280;33123;50.118;10.272;2023-02-21T13:11:30;97866.22;;;16.85;51.37
47374;BME280;33123;50.118;10.272;2023-02-21T13:13:59;97863.81;;;16.89;51.07
47374;BME280;33123;50.118;10.272;2023-02-21T13:16:27;97857.69;;;16.88;51.08
47374;BME280;33123;50.118;10.272;2023-02-21T13:18:56;97854.75;;;16.90;51.09
47374;BME280;33123;50.118;10.272;2023-02-21T13:21:33;97859.50;;;16.93;51.26
47374;BME280;33123;50.118;10.272;2023-02-21T13:27:35;97851.75;;;16.68;51.23
47374;BME280;33123;50.118;10.272;2023-02-21T13:30:12;97849.13;;;16.62;51.34
47374;BME280;33123;50.118;10.272;2023-02-21T13:32:49;97841.19;;;16.57;51.43
47374;BME280;33123;50.118;10.272;2023-02-21T13:35:19;97830.44;;;16.44;51.78
47374;BME280;33123;50.118;10.272;2023-02-21T13:37:50;97821.41;;;16.40;52.17
47374;BME280;33123;50.118;10.272;2023-02-21T13:40:20;97817.44;;;16.37;51.93
47374;BME280;33123;50.118;10.272;2023-02-21T13:42:58;97805.47;;;16.40;52.25